»·PEaware :: N234N KBFL-KMHV

N234N :: KBFL-KMHV

FLIGHT INFORMATION

Flight Status: Arrived
Operator: Privately registered:
United States
More flights under this callsign
Pilot: Pilot 1. (39972)
Aircraft: CESSNA 206 STATIONAIR
(C206)
More flights by this aircraft type
Origin: KBFL Meadows
United States
Destination: KMHV Mojave
United States
More flights between these airports :: More routes between these airports
Route:
File this flight plan on PilotEdge
Remarks:
Altitude:
(Current/Filed)
7,500ft
Speed:
(Current/Filed)
150kts
Departed: 25-Oct-23 09:34 AM
Arrived: 25-Oct-23 10:11 AM
Distance/Time
Traveled:
49nm/0:37
Distance/Time
To Go:
Arrived

Flight Plot

Page will automatically refresh every two minutes.


Map Options




Map Legend


Flown Route
Filed Route
Departure Airport
Arrival Airport
Navaid (VOR, NDB)
Fix

Horizontal Profiles

Position Reports

Time Latitude Longitude Heading Altitude Ground
Speed
25-Oct-23 09:16 35.438100 -119.055763 217 513ft 0kts
25-Oct-23 09:17 35.438100 -119.055764 217 513ft 0kts
25-Oct-23 09:18 35.438100 -119.055764 217 513ft 0kts
25-Oct-23 09:19 35.438100 -119.055764 217 513ft 0kts
25-Oct-23 09:20 35.438099 -119.055764 217 513ft 0kts
25-Oct-23 09:21 35.438099 -119.055765 217 513ft 0kts
25-Oct-23 09:22 35.438099 -119.055765 217 513ft 0kts
25-Oct-23 09:23 35.438099 -119.055765 217 513ft 0kts
25-Oct-23 09:24 35.438098 -119.055765 217 513ft 0kts
25-Oct-23 09:25 35.438098 -119.055766 217 513ft 0kts
25-Oct-23 09:26 35.438098 -119.055766 217 513ft 0kts
25-Oct-23 09:27 35.434618 -119.054921 134 513ft 15kts
25-Oct-23 09:28 35.429939 -119.049239 134 513ft 29kts
25-Oct-23 09:29 35.425619 -119.044973 60 513ft 7kts
25-Oct-23 09:30 35.427040 -119.046969 179 513ft 0kts
25-Oct-23 09:31 35.427040 -119.046969 179 513ft 0kts
25-Oct-23 09:32 35.426479 -119.047206 296 513ft 5kts
25-Oct-23 09:33 35.431608 -119.053442 316 553ft 81kts
25-Oct-23 09:34 35.448357 -119.073517 314 1267ft 81kts
25-Oct-23 09:35 35.467666 -119.079621 358 2048ft 70kts
25-Oct-23 09:36 35.488119 -119.079847 358 2667ft 79kts
25-Oct-23 09:37 35.509926 -119.080170 358 3279ft 81kts
25-Oct-23 09:38 35.507907 -119.062675 139 3799ft 83kts
25-Oct-23 09:39 35.492611 -119.040915 121 4311ft 85kts
25-Oct-23 09:40 35.480416 -119.015773 120 4809ft 85kts
25-Oct-23 09:41 35.468287 -118.990459 120 5228ft 90kts
25-Oct-23 09:42 35.455107 -118.962993 120 5546ft 95kts
25-Oct-23 09:43 35.441588 -118.934820 120 5848ft 95kts
25-Oct-23 09:44 35.428143 -118.906813 120 6143ft 94kts
25-Oct-23 09:45 35.414940 -118.879327 120 6437ft 92kts
25-Oct-23 09:46 35.402013 -118.852437 120 6728ft 90kts
25-Oct-23 09:47 35.389446 -118.826313 120 7018ft 87kts
25-Oct-23 09:48 35.377243 -118.800965 120 7306ft 84kts
25-Oct-23 09:49 35.365108 -118.775782 120 7490ft 92kts
25-Oct-23 09:50 35.350997 -118.746581 120 7463ft 98kts
25-Oct-23 09:51 35.336845 -118.717255 120 7475ft 104kts
25-Oct-23 09:52 35.321934 -118.686410 120 7472ft 105kts
25-Oct-23 09:53 35.306904 -118.655334 120 7472ft 106kts
25-Oct-23 09:54 35.291909 -118.624356 120 7472ft 106kts
25-Oct-23 09:55 35.276799 -118.593170 120 7469ft 106kts
25-Oct-23 09:56 35.261782 -118.562201 120 7472ft 106kts
25-Oct-23 09:57 35.246716 -118.531161 120 7472ft 106kts
25-Oct-23 09:58 35.232023 -118.499830 119 7472ft 106kts
25-Oct-23 09:59 35.216929 -118.468418 120 7476ft 110kts
25-Oct-23 10:00 35.200621 -118.435176 120 7473ft 116kts
25-Oct-23 10:01 35.183668 -118.401037 122 7344ft 122kts
25-Oct-23 10:02 35.165492 -118.364902 121 6849ft 126kts
25-Oct-23 10:03 35.147161 -118.327966 121 6313ft 129kts
25-Oct-23 10:04 35.128580 -118.290855 121 5817ft 123kts
25-Oct-23 10:05 35.111656 -118.256079 121 5626ft 116kts
25-Oct-23 10:06 35.093960 -118.220818 121 5196ft 125kts
25-Oct-23 10:07 35.076792 -118.182275 118 4123ft 118kts
25-Oct-23 10:08 35.072019 -118.146627 88 3609ft 99kts
25-Oct-23 10:09 35.057858 -118.134379 224 2898ft 54kts
25-Oct-23 10:10 35.059192 -118.159387 249 2804ft 32kts
25-Oct-23 10:11 35.058792 -118.165372 147 2804ft 0kts
25-Oct-23 10:12 35.057632 -118.163492 90 2804ft 21kts

Navigation Log

Ident Type
Flight plan parsing failed, navigation log unavailable